ADDS METAR Data INFO
IDs: Format: Raw Decoded Include TAF

Data at: 1200 UTC 21 Jun 2018

KHKA 211153Z AUTO VRB06KT 10SM OVC008 22/21 A2984 RMK AO2 CIG 006V010 SLP101 60002 70027 T02220211 10222 20211 55002 $
KHKA 211132Z AUTO 23009G16KT 10SM OVC013 22/21 A2984 RMK AO2 T02220211 $
KHKA 211101Z AUTO 21010KT 10SM SCT007 OVC022 22/21 A2984 RMK AO2 T02220211 $
KHKA 211053Z AUTO 22009KT 10SM BKN007 OVC022 22/21 A2983 RMK AO2 RAB07E33 SLP100 P0000 T02220211 $
KHKA 211015Z AUTO 21010KT 10SM -RA BKN008 OVC011 22/21 A2983 RMK AO2 RAB07 CIG 005V009 P0000 T02220206 $
KHKA 210953Z AUTO 21009KT 10SM SCT010 BKN014 OVC020 22/21 A2983 RMK AO2 RAB0859E18 SLP099 P0000 T02220211 $
KHKA 210853Z AUTO 19007KT 10SM BKN027 OVC035 22/21 A2984 RMK AO2 SLP103 60002 T02220211 55013 $
KHKA 210753Z AUTO 19004KT 10SM SCT080 BKN100 22/21 A2984 RMK AO2 RAE50 SLP101 P0001 T02170206 $
KHKA 210653Z AUTO 22007KT 10SM -RA SCT120 22/20 A2987 RMK AO2 RAB15 SLP113 P0001 T02170200 $
KHKA 210553Z AUTO 21009KT 10SM FEW060 BKN075 BKN095 22/21 A2988 RMK AO2 RAE36 SLP115 P0001 60025 T02170211 10267 20217 403000217 58010 $
KHKA 210453Z AUTO 20006KT 10SM -RA BKN090 OVC110 22/22 A2990 RMK AO2 SLP121 P0002 T02220222 $
KHKA 210353Z AUTO 25006G15KT 9SM RA SCT060 BKN075 OVC110 22/20 A2992 RMK AO2 RAB08 SLP128 P0004 T02220200
KHKA 210253Z AUTO 22005KT 10SM FEW055 SCT080 SCT120 23/22 A2991 RMK AO2 RAE10B40E49 SLP125 P0008 60018 T02330222 51009
KHKA 210153Z AUTO 23004KT 10SM -RA FEW045 SCT060 SCT070 23/22 A2990 RMK AO2 LTG DSNT NE AND E SLP123 P0007 T02330217
KHKA 210104Z AUTO 24008KT 5SM RA BR FEW006 BKN060 OVC085 23/22 A2991 RMK AO2 P0001 T02330217
KHKA 210053Z AUTO 24010KT 6SM RA BR FEW060 BKN070 OVC085 24/22 A2991 RMK AO2 RAB21 SLP124 P0003 T02390217
KHKA 202353Z AUTO 29007KT 10SM BKN090 27/21 A2988 RMK AO2 LTG DSNT SW SLP115 60000 T02670211 10294 20267 55005
KHKA 202253Z AUTO 22007KT 10SM SCT120 28/21 A2988 RMK AO2 SLP114 T02780211
KHKA 202153Z AUTO 21009KT 10SM SCT110 28/21 A2989 RMK AO2 LTG DSNT W SLP118 T02830211
KHKA 202053Z AUTO 20007KT 10SM SCT110 29/21 A2990 RMK AO2 RAB12E24 SLP120 P0000 60000 T02890206 56019
KHKA 201953Z AUTO 22012G15KT 10SM BKN100 29/19 A2991 RMK AO2 SLP124 T02890194
KHKA 201853Z AUTO 23008G17KT 10SM OVC080 28/20 A2994 RMK AO2 SLP135 T02830200
KHKA 201753Z AUTO 22011G20KT 10SM SCT090 SCT110 29/22 A2995 RMK AO2 SLP139 T02890217 10300 20250 56008
KHKA 201653Z AUTO 21013KT 10SM SCT100 30/21 A2995 RMK AO2 SLP139 T03000211
KHKA 201553Z AUTO VRB04KT 10SM OVC085 27/18 A2997 RMK AO2 SLP145 T02720183
KHKA 201453Z AUTO 23010G16KT 10SM BKN060 26/19 A2998 RMK AO2 SLP148 T02610189 51004
KHKA 201353Z AUTO 21011KT 10SM OVC060 27/21 A2998 RMK AO2 SLP148 T02670206
KHKA 201253Z AUTO 21006KT 10SM SCT075 OVC090 26/21 A2997 RMK AO2 SLP145 T02560206
KHKA 201153Z AUTO 22005KT 10SM OVC100 25/21 A2996 RMK AO2 SLP143 T02500206 10250 20244 53005
KHKA 201053Z AUTO 21004KT 10SM BKN110 24/20 A2996 RMK AO2 SLP141 T02440200
KHKA 200953Z AUTO 21006KT 10SM OVC110 24/19 A2994 RMK AO2 SLP137 T02440194
KHKA 200853Z AUTO 21006KT 10SM BKN110 24/19 A2995 RMK AO2 SLP139 T02440194 56002
KHKA 200753Z AUTO 21006KT 10SM CLR 25/19 A2995 RMK AO2 SLP139 T02500194
KHKA 200653Z AUTO 21006KT 10SM CLR 25/20 A2995 RMK AO2 SLP137 T02500200
KHKA 200553Z AUTO 21006KT 10SM CLR 25/20 A2996 RMK AO2 SLP141 T02500200 10311 20250 403280233 58002
KHKA 200453Z AUTO 20004KT 10SM CLR 26/19 A2996 RMK AO2 SLP142 T02560189
KHKA 200353Z AUTO 20006KT 10SM CLR 27/19 A2996 RMK AO2 SLP144 T02670189
KHKA 200253Z AUTO 21008KT 10SM CLR 27/19 A2996 RMK AO2 SLP143 T02720189 53002
KHKA 200153Z AUTO 20007KT 10SM CLR 28/18 A2995 RMK AO2 SLP140 T02830183
KHKA 200053Z AUTO 19008KT 10SM CLR 29/18 A2996 RMK AO2 SLP143 T02940183